Whitlash, MT (59545)

11:37 PM MDT on August 27, 2014 (GMT -0600)
Fred and George | Change Station
CLOSE
Current Station
Personal Weather Station
Location: Galata, MT
Elevation: 3777 ft
Nearby Weather Stations

Elev 3777 ft 48.94 °N, 111.43 °W | Updated 40 seconds ago

Clear
Clear
74.2 °F
Feels Like 77 °F
N
19.0
Wind Variable Wind from WSW

Today
High -- | Low -- °F
--% Chance of Precip.
Yesterday
High -- | Low -- °F
Precip. -- in
6:34 AM 8:16 PM
Waxing Crescent, 6% visible
Pressure 30.00 in
Visibility 10.0 miles
Clouds Few 200 ft
Heat Index 77 °F
Dew Point 48 °F
Humidity 40%
Rainfall 0.00 in
Snow Depth Not available.
UV 0 out of 12
Pollen 8.70 out of 12
Air Quality Not available.
Flu Activity Not available.
SPECI KCTB 280525Z AUTO 24009KT 10SM FEW002 18/08 A3000 RMK AO2 T01780078

More Conditions Fewer Conditions

Pressure 30.00 in
Visibility 10.0 miles
Clouds Few 200 ft
Heat Index 77 °F
Dew Point 48 °F
Humidity 40%
Rainfall 0.00 in
Snow Depth Not available.
UV 0 out of 12
Pollen 8.70 out of 12
Air Quality Not available.
Flu Activity Not available.
SPECI KCTB 280525Z AUTO 24009KT 10SM FEW002 18/08 A3000 RMK AO2 T01780078

More Conditions Fewer Conditions

10-Day Weather Forecast

Almanac

Astronomy

Aug. 27, 2014 Rise Set
Actual Time 6:34 AM MDT 8:16 PM MDT
Civil Twilight 6:00 AM MDT 8:49 PM MDT
Nautical Twilight 5:19 AM MDT 9:30 PM MDT
Astronomical Twilight 4:35 AM MDT 10:14 PM MDT
Moon 8:47 AM MDT (8/27) 8:54 PM MDT (8/27)
Length of Visible Light 14h 48m
Length of Day
13h 42m
Tomorrow will be 3m 26s shorter.
Waxing Crescent, 6% of the Moon is Illuminated
Aug 28
Waxing Crescent
Sep 2
First Quarter
Sep 8
Full
Sep 15
Last Quarter
Sep 24
New

Yesterday's Extremes

State Highs State Lows

Community

WunderPhotos

Upload Photos

1,747,909 photos uploaded!

Nearby

Snow Depth

Station Depth Elevation
Dupuyer Creek 0 in 5750 ft
Waldron 2 in 5600 ft
Badger Pass 0 in 6900 ft
Wood Creek 1 in 5960 ft
Emery Creek 0 in 4350 ft

Earthquake Activity

City Distance Mag. Time & Date
No recent earthquake activity has been reported nearby.
Minimum magnitude displayed is 2.5.

Coastal Water Temperatures

Place Temperature
No Stations Reporting

Nearby Weather Stations